Date,TemperatureHighF,TemperatureAvgF,TemperatureLowF,DewpointHighF,DewpointAvgF,DewpointLowF,HumidityHigh,HumidityAvg,HumidityLow,PressureMaxIn,PressureMinIn,WindSpeedMaxMPH,WindSpeedAvgMPH,GustSpeedMaxMPH,PrecipitationSumIn
2012-9-17,83.0,78.3,73.2,64.0,62.6,62.0,70,59,51,29.90,29.80,10,2,11,0.00
2012-9-18,82.9,72.3,66.5,63.0,52.1,-99.9,87,56,22,30.10,29.90,14,-8,15,0.00
2012-9-19,88.3,72.8,55.5,61.0,50.2,43.0,96,51,21,30.16,30.02,11,3,13,0.00
2012-9-20,94.5,80.1,63.8,61.0,55.6,50.0,66,45,27,30.06,29.92,10,5,15,0.00
2012-9-21,95.4,81.0,66.9,60.0,53.7,45.0,69,43,18,30.00,29.89,10,4,14,0.00
2012-9-22,97.1,81.7,65.1,57.0,53.2,47.0,70,41,19,30.09,29.95,9,3,11,0.00
2012-9-23,95.9,82.0,67.7,61.0,57.6,52.0,72,46,23,30.18,30.05,7,2,11,0.00
2012-9-24,96.7,83.8,71.4,68.0,60.1,48.0,77,48,20,30.12,29.93,11,6,19,0.00
2012-9-25,95.2,83.6,73.6,69.0,62.6,54.0,83,53,26,29.99,29.85,25,9,25,0.00
2012-9-26,93.1,83.1,74.4,70.0,64.0,58.0,84,56,31,30.02,29.90,15,6,20,0.00
2012-9-27,91.2,82.3,74.9,70.0,64.9,58.0,81,58,35,30.09,29.98,10,4,14,0.00
2012-9-28,88.5,78.4,71.9,68.0,66.0,63.0,78,67,44,30.07,29.94,13,3,17,0.00
2012-9-29,75.2,69.2,65.6,69.0,66.1,63.0,97,90,75,29.99,29.82,11,4,20,3.04
2012-9-30,72.7,67.5,63.5,65.0,60.1,51.0,96,79,49,29.90,29.84,14,6,19,0.12
2012-10-1,82.6,71.0,59.7,62.0,54.2,48.0,92,60,30,29.89,29.81,13,5,18,0.00
2012-10-2,79.1,70.8,63.5,56.0,54.1,52.0,73,57,40,29.99,29.88,9,4,14,0.00
2012-10-3,84.1,72.6,61.5,56.0,52.8,47.0,79,53,27,30.02,29.93,16,4,19,0.00
2012-10-4,85.6,76.1,63.7,68.0,63.6,54.0,88,66,53,30.11,30.01,12,6,19,0.00
2012-10-5,83.2,73.5,58.6,70.0,62.9,50.0,85,70,56,30.11,29.98,13,5,19,0.00
2012-10-6,58.4,53.0,47.5,51.0,45.3,39.0,86,75,67,30.29,30.11,14,6,16,0.00
2012-10-7,52.2,50.0,47.6,39.0,36.2,32.0,72,60,46,30.36,30.23,10,4,13,0.00
2012-10-8,67.1,55.2,41.8,46.0,40.3,36.0,92,60,38,30.32,30.09,8,2,10,0.00
2012-10-9,82.3,66.9,55.1,65.0,56.6,46.0,81,70,52,30.09,29.86,14,6,23,0.00
2012-10-10,71.4,47.4,62.8,66.0,16.4,-99.9,95,64,80,30.15,29.97,8,-288,10,0.00
2012-10-11,-200.0,0.0,200.0,-99.9,-99.9,-99.9,0,0,100,30.16,30.04,0,-999,0,0.00
2012-10-12,-200.0,0.0,200.0,-99.9,-99.9,-99.9,0,0,100,30.20,30.08,0,-999,0,0.00
2012-10-13,-200.0,0.0,200.0,-99.9,-99.9,-99.9,0,0,100,30.09,29.84,0,-999,0,0.00
2012-10-14,-200.0,0.0,200.0,-99.9,-99.9,-99.9,0,0,100,30.11,29.87,0,-999,0,0.00
2012-10-15,84.3,42.2,65.4,54.0,-17.7,-99.9,61,22,24,30.15,29.96,4,-446,7,0.00
2012-10-16,76.2,66.3,57.2,65.0,56.8,51.0,96,73,53,29.98,29.70,18,6,22,0.00
2012-10-17,87.2,74.9,65.9,68.0,58.1,43.0,96,62,29,29.80,29.57,15,8,23,0.00
2012-10-18,75.0,66.2,56.7,47.0,34.4,24.0,51,33,16,30.03,29.79,9,3,13,0.00
2012-10-19,78.1,62.9,47.6,55.0,36.8,26.0,94,44,16,30.07,29.91,13,3,18,0.00
2012-10-20,86.8,70.5,51.1,70.0,56.4,39.0,93,62,49,29.93,29.73,16,6,22,0.00
2012-10-21,89.2,80.0,72.8,72.0,70.0,67.0,95,73,49,29.88,29.78,18,10,24,0.00
2012-10-22,84.5,75.7,71.3,72.0,68.6,63.0,95,79,54,29.99,29.87,15,7,24,0.00
2012-10-23,85.1,76.6,70.7,72.0,67.2,66.0,88,74,55,29.96,29.88,14,7,19,0.00
2012-10-24,85.2,75.5,68.9,68.0,65.1,62.0,90,72,47,29.98,29.83,18,7,23,0.00
2012-10-25,81.3,69.5,56.7,70.0,60.1,43.0,88,73,58,30.09,29.80,15,8,25,0.03
2012-10-26,55.8,51.4,47.7,43.0,37.9,31.0,75,61,48,30.35,30.09,18,7,20,0.02
2012-10-27,57.9,47.9,37.8,34.0,30.2,25.0,77,53,30,30.39,30.20,15,4,15,0.00
2012-10-28,62.9,50.4,39.9,45.0,31.7,27.0,94,53,26,30.34,30.21,9,2,14,0.00
2012-10-29,69.0,53.4,39.6,45.0,35.3,26.0,96,59,20,30.34,30.15,5,1,9,0.03
2012-10-30,77.9,59.6,42.4,54.0,40.3,34.0,94,53,28,30.15,29.96,7,3,11,0.00
2012-10-31,82.2,65.5,52.5,52.0,47.6,44.0,92,57,26,30.05,29.97,8,2,13,0.00
2012-11-1,88.9,70.7,54.2,54.0,48.3,44.0,73,48,21,30.06,29.92,8,2,14,0.00
2012-11-2,87.4,72.4,58.3,60.0,52.9,44.0,77,54,22,30.00,29.89,15,5,18,0.00
2012-11-3,84.4,72.1,62.8,64.0,59.7,53.0,91,67,46,30.11,29.95,10,4,12,0.00
2012-11-4,75.3,64.3,55.9,56.0,44.7,40.0,76,50,33,30.16,30.05,6,2,9,0.00
2012-11-5,75.8,64.0,55.1,49.0,42.6,33.0,76,49,27,30.13,30.02,10,2,16,0.00
2012-11-6,75.7,59.9,48.1,46.0,41.0,37.0,73,52,28,30.19,30.06,5,1,7,0.00
2012-11-7,76.8,63.0,51.1,46.0,40.7,36.0,75,48,24,30.22,30.09,5,1,9,0.00
2012-11-8,81.4,68.9,57.0,59.0,51.0,39.0,69,54,39,30.12,29.97,23,7,27,0.00
2012-11-9,82.9,72.0,62.8,64.0,58.9,53.0,93,66,42,30.03,29.91,24,10,31,0.00
2012-11-10,80.5,71.7,64.9,63.0,60.6,58.0,92,69,48,30.00,29.82,22,11,30,0.00
2012-11-11,75.3,63.9,43.7,66.0,56.3,35.0,92,76,61,30.30,29.76,19,8,32,0.01
2012-11-12,55.6,45.8,37.2,35.0,24.9,19.0,73,47,25,30.55,30.31,10,3,16,0.01
2012-11-13,57.8,48.3,36.5,33.0,26.6,22.0,76,47,26,30.56,30.38,11,2,15,0.00
2012-11-14,61.3,51.8,42.6,48.0,31.5,27.0,88,48,28,30.47,30.31,5,1,7,0.01
2012-11-15,64.7,52.1,42.2,36.0,32.5,29.0,67,49,31,30.38,30.25,8,2,11,0.00
2012-11-16,64.1,50.7,40.1,46.0,35.8,30.0,95,62,29,30.46,30.35,6,1,9,0.01
2012-11-17,65.6,51.4,38.5,41.0,33.9,29.0,94,57,27,30.45,30.31,8,2,11,0.00
2012-11-18,68.3,56.8,42.9,49.0,38.2,32.0,90,52,32,30.33,30.21,12,4,17,0.01
2012-11-19,72.4,63.3,57.0,54.0,49.2,38.0,75,61,46,30.25,30.12,16,4,18,0.00
2012-11-20,79.2,65.8,55.0,58.0,53.8,51.0,88,67,39,30.22,30.13,6,1,7,0.00
2012-11-21,79.9,63.9,50.3,60.0,51.1,46.0,97,69,32,30.28,30.13,12,2,15,0.03
2012-11-22,76.0,64.6,54.0,57.0,51.6,46.0,80,64,47,30.15,30.02,20,5,24,0.00
2012-11-23,64.3,58.5,44.0,56.0,36.3,22.0,95,49,21,30.46,30.10,20,6,24,0.04
2012-11-24,61.2,48.4,36.7,41.0,26.5,20.0,91,47,21,30.46,30.13,7,2,10,0.02
2012-11-25,76.0,59.7,43.1,55.0,38.7,26.0,72,47,33,30.13,29.86,14,6,22,0.00
2012-11-26,74.2,61.9,48.9,59.0,49.9,35.0,94,67,29,30.28,29.88,19,7,23,0.00
2012-11-27,52.3,45.9,41.0,38.0,34.1,29.0,84,64,55,30.48,30.28,11,4,18,0.00
2012-11-28,65.9,51.0,37.8,43.0,37.8,35.0,88,64,37,30.48,30.29,11,3,15,0.00
2012-11-29,68.2,56.9,44.2,51.0,41.9,36.0,81,60,34,30.29,30.12,11,5,16,0.00
2012-11-30,74.4,64.9,56.0,61.0,57.5,51.0,91,78,60,30.16,30.03,12,6,18,0.00
2012-12-1,81.9,72.0,64.2,66.0,62.1,60.0,93,73,49,30.07,29.94,17,9,23,0.00
2012-12-2,81.7,72.4,66.9,66.0,62.2,59.0,88,72,49,30.13,29.99,14,6,20,0.00
2012-12-3,80.3,70.8,64.6,61.0,60.2,59.0,87,70,50,30.02,29.90,17,8,23,0.00
2012-12-4,71.8,63.2,54.2,60.0,42.9,27.0,86,52,23,30.28,29.99,15,5,19,0.00
2012-12-5,65.6,55.3,45.9,49.0,40.7,27.0,84,59,35,30.31,30.07,6,2,8,0.00
2012-12-6,69.4,59.6,51.5,54.0,50.7,47.0,96,75,49,30.07,29.82,12,6,18,0.00
2012-12-7,73.3,61.2,51.5,58.0,50.9,43.0,91,71,47,29.92,29.80,11,4,13,0.00
2012-12-8,72.6,60.4,52.3,62.0,52.8,47.0,91,77,57,29.95,29.80,7,2,14,0.00
2012-12-9,67.4,59.0,39.6,64.0,51.3,18.0,95,77,39,30.07,29.78,22,8,23,0.00
2012-12-10,43.3,36.4,28.9,25.0,17.8,11.0,85,48,35,30.23,30.08,17,7,27,0.00
2012-12-11,50.1,37.9,27.1,23.0,15.2,8.0,79,44,19,30.29,30.16,6,1,9,0.00
2012-12-12,58.2,44.6,31.1,25.0,21.0,12.0,62,41,25,30.37,30.23,10,4,15,0.00
2012-12-13,65.1,52.0,39.4,35.0,27.0,20.0,55,39,28,30.34,30.18,12,5,17,0.00
2012-12-14,61.3,56.3,52.0,59.0,43.1,27.0,94,64,36,30.21,29.86,12,6,19,0.21
2012-12-15,72.8,62.2,52.8,59.0,42.3,29.0,95,54,20,29.95,29.83,13,4,18,0.01
2012-12-16,73.1,63.0,55.5,46.0,39.6,33.0,71,45,24,29.85,29.70,10,4,19,0.00
2012-12-17,62.7,53.0,42.8,40.0,36.0,30.0,79,54,36,29.96,29.78,10,4,17,0.00
2012-12-18,80.1,58.6,41.7,48.0,33.3,28.0,65,43,15,29.89,29.77,14,4,16,0.00
2012-12-19,78.0,69.3,56.3,64.0,56.9,20.0,89,68,18,29.85,29.56,29,10,41,0.24
2012-12-20,53.5,45.1,39.2,26.0,13.3,2.0,54,30,14,30.47,29.87,29,11,40,0.00
2012-12-21,64.9,46.3,30.5,20.0,14.6,9.0,53,31,13,30.51,30.33,10,3,13,0.00
2012-12-22,67.3,52.2,34.6,47.0,31.3,17.0,66,46,33,30.34,30.05,17,6,23,0.00
2012-12-23,64.5,57.0,47.6,53.0,38.2,22.0,89,54,21,30.05,29.86,16,5,18,0.00
2012-12-24,52.9,43.4,33.5,32.0,26.9,24.0,68,54,37,30.08,29.83,7,3,14,0.00
2012-12-25,46.7,37.0,27.4,44.0,33.3,22.0,95,87,56,30.21,29.65,21,9,29,1.31
2012-12-26,32.7,26.5,21.2,24.0,19.3,15.0,82,75,67,30.36,30.19,16,6,22,0.00
2012-12-27,44.6,35.7,25.8,42.0,31.2,22.0,94,84,72,30.19,29.93,12,4,14,0.00
2012-12-28,42.7,37.8,30.2,41.0,33.5,22.0,96,85,66,30.29,29.92,15,6,21,0.02
2012-12-29,44.5,34.8,27.2,27.0,22.0,18.0,78,61,41,30.51,30.28,6,2,12,0.00
2012-12-30,47.7,39.4,30.4,27.0,23.9,20.0,76,56,36,30.51,30.27,13,5,16,0.00
2012-12-31,48.6,44.2,38.2,47.0,41.0,27.0,96,89,54,30.27,30.00,10,3,15,0.21
2013-1-1,46.5,40.2,34.9,44.0,35.5,28.0,91,83,75,30.35,30.07,13,6,16,0.00